Angel S Adami Airport

Airport
ICAO code: 
SUAA
Summary
Territory: 
Location: 
, Montevideo
Serving: 
Montevideo
Elevation: 
174 ft
Coordinates: 
Aerial View: 
34° 47' 21.149" S, 56° 15' 52.931" W
Metar
Observation
SUAA 261900Z 19012KT 9999 FEW016 24/16 Q1010
Station
Melilla
Date/Time
2021-11-26 19:00:00
Wind direction
190°
Wind speed
12 kts
Lowest cloud amount
few clouds
Temperature
24°C
Dew point
16°C
Humidity
60%
QNH
1010 hPa
Weather condition
n/a

Runways

Designator Length Width Surface Rops
18/36 1250 23 CON No/No
Airport map: 
Aerial View: 

SKYbrary Partners:

Safety knowledge contributed by: